Time;durP1;ratioP1;P1;durP2;ratioP2;P2;SDS_P1;SDS_P2;PMS_P1;PMS_P2;Temp;Humidity;BMP_temperature;BMP_pressure;BME280_temperature;BME280_humidity;BME280_pressure;Samples;Min_cycle;Max_cycle;Signal;HPM_P1;HPM_P2
2022/10/29 00:00:09;;;;;;;14.02;5.03;;;15.00;99.90;;;;;;5024264;28;20025;-50
2022/10/29 00:02:35;;;;;;;10.23;4.47;;;15.00;99.90;;;;;;5016985;28;20534;-50
2022/10/29 00:05:00;;;;;;;12.73;4.88;;;15.00;99.90;;;;;;5020073;28;20114;-54
2022/10/29 00:07:26;;;;;;;15.90;4.88;;;15.00;99.90;;;;;;5024303;28;20075;-52
2022/10/29 00:09:51;;;;;;;12.65;4.63;;;14.90;99.90;;;;;;5021639;28;20499;-54
2022/10/29 00:12:17;;;;;;;10.38;4.18;;;14.90;99.90;;;;;;5023565;28;20017;-51
2022/10/29 00:14:42;;;;;;;15.23;5.22;;;14.90;99.90;;;;;;5013775;28;20036;-54
2022/10/29 00:17:08;;;;;;;14.18;5.07;;;14.80;99.90;;;;;;5022005;28;20037;-51
2022/10/29 00:19:34;;;;;;;14.25;4.95;;;14.90;99.90;;;;;;5018744;28;20030;-50
2022/10/29 00:21:59;;;;;;;7.47;3.88;;;14.80;99.90;;;;;;5018683;28;20076;-54
2022/10/29 00:24:25;;;;;;;18.13;5.40;;;14.80;99.90;;;;;;5015667;28;20719;-50
2022/10/29 00:26:50;;;;;;;9.55;4.18;;;14.80;99.90;;;;;;5021300;28;20615;-50
2022/10/29 00:29:16;;;;;;;12.63;4.82;;;14.80;99.90;;;;;;5013891;28;20045;-51
2022/10/29 00:31:41;;;;;;;13.18;4.75;;;14.80;99.90;;;;;;5022881;28;20025;-52
2022/10/29 00:34:07;;;;;;;15.40;5.75;;;14.70;99.90;;;;;;5009603;28;20048;-51
2022/10/29 00:36:33;;;;;;;10.07;4.55;;;14.70;99.90;;;;;;5018851;28;20460;-51
2022/10/29 00:38:58;;;;;;;9.25;4.20;;;14.60;99.90;;;;;;5022750;28;20022;-50
2022/10/29 00:41:27;;;;;;;9.40;4.55;;;14.70;99.90;;;;;;5021325;28;20030;-50
2022/10/29 00:44:21;;;;;;;14.70;4.57;;;14.60;99.90;;;;;;5022268;28;20099;-51
2022/10/29 00:46:50;;;;;;;14.27;4.20;;;14.60;99.90;;;;;;5019485;28;20518;-51
2022/10/29 00:49:16;;;;;;;13.63;4.65;;;14.50;99.90;;;;;;5025171;28;20029;-51
2022/10/29 00:51:42;;;;;;;12.05;4.88;;;14.50;99.90;;;;;;5019190;28;20464;-52
2022/10/29 00:54:10;;;;;;;10.73;4.28;;;14.40;99.90;;;;;;5016004;28;20041;-55
2022/10/29 00:56:47;;;;;;;12.05;4.65;;;14.40;99.90;;;;;;5018976;28;20030;-55
2022/10/29 00:59:16;;;;;;;8.57;3.88;;;14.40;99.90;;;;;;5020018;28;20119;-53
2022/10/29 01:01:43;;;;;;;15.10;4.55;;;14.30;99.90;;;;;;5016799;28;20065;-50
2022/10/29 01:04:10;;;;;;;14.52;4.90;;;14.30;99.90;;;;;;5013703;28;20120;-52
2022/10/29 01:06:37;;;;;;;13.63;5.05;;;14.30;99.90;;;;;;5011784;28;20484;-51
2022/10/29 01:09:03;;;;;;;12.63;3.92;;;14.20;99.90;;;;;;5016888;28;20044;-54
2022/10/29 01:11:44;;;;;;;11.93;4.80;;;14.20;99.90;;;;;;5019460;28;20508;-57
2022/10/29 01:14:19;;;;;;;8.75;3.35;;;14.20;99.90;;;;;;5017369;28;20033;-50
2022/10/29 01:17:03;;;;;;;18.08;4.25;;;14.10;99.90;;;;;;5012871;28;20052;-56
2022/10/29 01:20:03;;;;;;;18.05;4.63;;;14.10;99.90;;;;;;5005238;28;20169;-52
2022/10/29 01:22:52;;;;;;;9.00;3.75;;;14.10;99.90;;;;;;5018552;28;20026;-52
2022/10/29 01:25:33;;;;;;;10.10;4.25;;;14.10;99.90;;;;;;5015170;28;20133;-52
2022/10/29 01:28:26;;;;;;;10.00;4.25;;;14.00;99.90;;;;;;5011785;28;20042;-54
2022/10/29 01:31:04;;;;;;;17.30;5.05;;;14.00;99.90;;;;;;5018314;28;20026;-51
2022/10/29 01:34:12;;;;;;;15.95;4.20;;;14.00;99.90;;;;;;5019670;28;20033;-50
2022/10/29 01:37:03;;;;;;;8.18;4.10;;;14.00;99.90;;;;;;5018778;28;20124;-52
2022/10/29 01:40:07;;;;;;;10.82;4.38;;;14.00;99.90;;;;;;4993583;28;20033;-54
2022/10/29 01:42:44;;;;;;;12.07;4.15;;;14.00;99.90;;;;;;4994370;28;20029;-50
2022/10/29 01:45:28;;;;;;;12.40;4.20;;;14.00;99.90;;;;;;5012967;28;20192;-52
2022/10/29 01:47:58;;;;;;;8.15;3.53;;;14.00;99.90;;;;;;5021328;28;20050;-54
2022/10/29 01:50:24;;;;;;;10.63;4.47;;;14.00;99.90;;;;;;5020190;28;20567;-54
2022/10/29 01:52:52;;;;;;;11.57;5.07;;;14.00;99.90;;;;;;5015886;28;20733;-53
2022/10/29 01:55:20;;;;;;;14.43;5.07;;;14.00;99.90;;;;;;5014983;28;20026;-56
2022/10/29 01:57:46;;;;;;;11.93;4.00;;;14.00;99.90;;;;;;5018130;28;20041;-55
2022/10/29 02:00:15;;;;;;;15.18;5.03;;;14.00;99.90;;;;;;5015530;28;20030;-50
2022/10/29 02:02:52;;;;;;;10.68;4.07;;;14.00;99.90;;;;;;5040416;22;20069;-48
2022/10/29 02:05:31;;;;;;;9.73;4.10;;;13.90;99.90;;;;;;5015676;28;20039;-49
2022/10/29 02:08:09;;;;;;;15.90;4.28;;;13.90;99.90;;;;;;5014728;28;20373;-48
2022/10/29 02:10:49;;;;;;;8.45;3.67;;;13.90;99.90;;;;;;5032379;28;20036;-50
2022/10/29 02:13:17;;;;;;;12.15;3.70;;;13.90;99.90;;;;;;4990111;28;20105;-47
2022/10/29 02:15:51;;;;;;;7.57;3.90;;;13.80;99.90;;;;;;5013569;28;20025;-47
2022/10/29 02:18:17;;;;;;;15.85;3.70;;;13.80;99.90;;;;;;4996257;28;20037;-49
2022/10/29 02:20:44;;;;;;;14.30;5.07;;;13.80;99.90;;;;;;5002754;28;20018;-46
2022/10/29 02:23:10;;;;;;;8.68;4.00;;;13.80;99.90;;;;;;4997981;28;20564;-48
2022/10/29 02:25:36;;;;;;;8.13;4.60;;;13.80;99.90;;;;;;5003754;28;20117;-46
2022/10/29 02:28:02;;;;;;;12.50;4.78;;;13.80;99.90;;;;;;4994619;28;20022;-46
2022/10/29 02:30:27;;;;;;;11.13;3.80;;;13.80;99.90;;;;;;4998099;28;20034;-47
2022/10/29 02:32:53;;;;;;;15.32;4.93;;;13.80;99.90;;;;;;4994861;28;20105;-50
2022/10/29 02:35:18;;;;;;;14.13;4.10;;;13.80;99.90;;;;;;4999294;28;20021;-47
2022/10/29 02:37:44;;;;;;;13.02;3.80;;;13.70;99.90;;;;;;4999886;28;20026;-46
2022/10/29 02:40:10;;;;;;;9.55;3.70;;;13.70;99.90;;;;;;5014887;28;20424;-47
2022/10/29 02:42:36;;;;;;;12.55;4.28;;;13.70;99.90;;;;;;5002055;28;20045;-46
2022/10/29 02:45:02;;;;;;;13.48;4.03;;;13.70;99.90;;;;;;4993126;28;20109;-49
2022/10/29 02:47:27;;;;;;;13.88;4.40;;;13.70;99.90;;;;;;5013073;28;20027;-51
2022/10/29 02:49:53;;;;;;;7.03;3.78;;;13.70;99.90;;;;;;5000094;28;20040;-48
2022/10/29 02:52:18;;;;;;;12.23;5.07;;;13.60;99.90;;;;;;5000463;28;20040;-46
2022/10/29 02:54:44;;;;;;;9.43;5.10;;;13.70;99.90;;;;;;4998673;28;20445;-46
2022/10/29 02:57:10;;;;;;;8.13;3.58;;;13.60;99.90;;;;;;4998869;28;20025;-50
2022/10/29 02:59:35;;;;;;;7.57;3.08;;;13.60;99.90;;;;;;4996372;28;20088;-46
2022/10/29 03:02:01;;;;;;;6.75;3.78;;;13.60;99.90;;;;;;4996682;28;20027;-46
2022/10/29 03:04:26;;;;;;;10.93;3.60;;;13.60;99.90;;;;;;5003657;28;20453;-50
2022/10/29 03:06:52;;;;;;;11.40;4.43;;;13.60;99.90;;;;;;5001087;28;20092;-49
2022/10/29 03:09:17;;;;;;;9.57;4.22;;;13.50;99.90;;;;;;4991821;28;20030;-48
2022/10/29 03:11:43;;;;;;;10.73;2.97;;;13.50;99.90;;;;;;4994048;28;20042;-49
2022/10/29 03:14:08;;;;;;;12.30;4.82;;;13.60;99.90;;;;;;4998436;28;20042;-47
2022/10/29 03:16:34;;;;;;;12.43;3.72;;;13.50;99.90;;;;;;5002665;28;20025;-51
2022/10/29 03:19:00;;;;;;;9.95;3.42;;;13.50;99.90;;;;;;4994047;28;20090;-47
2022/10/29 03:21:25;;;;;;;8.05;3.53;;;13.50;99.90;;;;;;5007448;28;20029;-46
2022/10/29 03:23:51;;;;;;;14.10;3.38;;;13.50;99.90;;;;;;4994033;28;20115;-46
2022/10/29 03:26:16;;;;;;;11.93;3.83;;;13.40;99.90;;;;;;5004632;28;20082;-51
2022/10/29 03:28:42;;;;;;;5.85;3.03;;;13.40;99.90;;;;;;5017455;28;20489;-47
2022/10/29 03:31:07;;;;;;;9.20;4.18;;;13.40;99.90;;;;;;5013281;28;20492;-47
2022/10/29 03:33:35;;;;;;;8.82;3.85;;;13.40;99.90;;;;;;4994671;28;20022;-46
2022/10/29 03:36:04;;;;;;;14.63;3.65;;;13.40;99.90;;;;;;4997744;28;20165;-46
2022/10/29 03:38:30;;;;;;;6.25;4.43;;;13.40;99.90;;;;;;5001783;28;20072;-49
2022/10/29 03:40:56;;;;;;;11.27;3.47;;;13.30;99.90;;;;;;4995077;28;20026;-48
2022/10/29 03:43:22;;;;;;;10.35;4.00;;;13.30;99.90;;;;;;5002279;28;20014;-47
2022/10/29 03:45:55;;;;;;;8.45;2.78;;;13.30;99.90;;;;;;4998944;28;20110;-47
2022/10/29 03:48:22;;;;;;;7.25;3.83;;;13.30;99.90;;;;;;5012491;28;20025;-47
2022/10/29 03:50:59;;;;;;;9.18;3.80;;;13.20;99.90;;;;;;5000363;28;20030;-47
2022/10/29 03:53:25;;;;;;;7.65;3.55;;;13.20;99.90;;;;;;4991802;28;20261;-46
2022/10/29 03:55:51;;;;;;;12.00;5.45;;;13.10;99.90;;;;;;4999779;28;20080;-49
2022/10/29 03:58:17;;;;;;;12.32;4.28;;;13.10;99.90;;;;;;4983012;28;20197;-46
2022/10/29 04:00:43;;;;;;;18.63;4.78;;;13.10;99.90;;;;;;4998050;28;20046;-48
2022/10/29 04:03:08;;;;;;;14.15;3.97;;;13.00;99.90;;;;;;5002047;28;20048;-46
2022/10/29 04:05:34;;;;;;;7.55;4.30;;;12.90;99.90;;;;;;5004671;28;20049;-48
2022/10/29 04:07:59;;;;;;;12.25;4.03;;;12.90;99.90;;;;;;4997717;28;20069;-49
2022/10/29 04:10:25;;;;;;;14.35;5.20;;;12.90;99.90;;;;;;5004573;28;20166;-47
2022/10/29 04:12:51;;;;;;;9.88;4.55;;;12.90;99.90;;;;;;5015878;28;20034;-46
2022/10/29 04:15:17;;;;;;;14.43;4.88;;;12.80;99.90;;;;;;5004549;28;20022;-47
2022/10/29 04:17:42;;;;;;;6.45;3.63;;;12.80;99.90;;;;;;5004474;28;20393;-47
2022/10/29 04:20:09;;;;;;;7.00;4.05;;;12.70;99.90;;;;;;4999004;28;20038;-50
2022/10/29 04:22:34;;;;;;;9.27;4.88;;;12.60;99.90;;;;;;5004123;28;20120;-48
2022/10/29 04:25:00;;;;;;;9.90;4.15;;;12.60;99.90;;;;;;5004139;28;20559;-46
2022/10/29 04:27:27;;;;;;;12.57;4.75;;;12.60;99.90;;;;;;4999861;28;20038;-47
2022/10/29 04:29:52;;;;;;;10.27;4.07;;;12.50;99.90;;;;;;5004699;28;20531;-49
2022/10/29 04:32:18;;;;;;;7.32;3.92;;;12.40;99.90;;;;;;4998960;28;20034;-47
2022/10/29 04:34:43;;;;;;;6.95;3.97;;;12.40;99.90;;;;;;5007828;28;20547;-48
2022/10/29 04:37:09;;;;;;;8.68;4.13;;;12.40;99.90;;;;;;5008602;28;20091;-47
2022/10/29 04:39:34;;;;;;;8.60;4.18;;;12.30;99.90;;;;;;4993431;28;20022;-46
2022/10/29 04:42:00;;;;;;;7.65;4.55;;;12.30;99.90;;;;;;5004107;28;20045;-46
2022/10/29 04:44:25;;;;;;;11.93;5.03;;;12.30;99.90;;;;;;5001074;28;20022;-46
2022/10/29 04:46:51;;;;;;;10.18;4.72;;;12.30;99.90;;;;;;5001239;28;20119;-48
2022/10/29 04:49:16;;;;;;;9.20;4.72;;;12.20;99.90;;;;;;5002344;28;20074;-46
2022/10/29 04:51:42;;;;;;;8.93;4.60;;;12.30;99.90;;;;;;5000494;28;20030;-46
2022/10/29 04:54:08;;;;;;;10.30;4.85;;;12.30;99.90;;;;;;5002239;28;20057;-47
2022/10/29 04:56:33;;;;;;;13.18;4.80;;;12.30;99.90;;;;;;4999760;28;20106;-50
2022/10/29 04:58:59;;;;;;;10.00;4.65;;;12.30;99.90;;;;;;5004167;28;20036;-46
2022/10/29 05:01:24;;;;;;;14.38;6.50;;;12.30;99.90;;;;;;5001108;28;20104;-46
2022/10/29 05:03:50;;;;;;;13.30;6.72;;;12.30;99.90;;;;;;5001441;28;20030;-47
2022/10/29 05:06:15;;;;;;;14.70;5.88;;;12.30;99.90;;;;;;4999664;28;20022;-50
2022/10/29 05:08:41;;;;;;;11.20;6.63;;;12.30;99.90;;;;;;5000065;28;20092;-48
2022/10/29 05:11:07;;;;;;;12.80;6.25;;;12.30;99.90;;;;;;4998293;28;20109;-47
2022/10/29 05:13:33;;;;;;;16.33;7.03;;;12.40;99.90;;;;;;4993619;28;20166;-46
2022/10/29 05:15:59;;;;;;;12.63;5.68;;;12.40;99.90;;;;;;5017002;28;20022;-47
2022/10/29 05:18:25;;;;;;;11.88;5.80;;;12.40;99.90;;;;;;5000522;28;20054;-46
2022/10/29 05:20:54;;;;;;;15.73;7.88;;;12.40;99.90;;;;;;5007112;28;20511;-47
2022/10/29 05:23:20;;;;;;;15.13;7.03;;;12.40;99.90;;;;;;5001138;28;20404;-47
2022/10/29 05:25:50;;;;;;;14.45;8.30;;;12.40;99.90;;;;;;4994995;28;20022;-47
2022/10/29 05:28:20;;;;;;;20.13;8.75;;;12.50;99.90;;;;;;4996383;28;20109;-46
2022/10/29 05:30:47;;;;;;;14.23;8.70;;;12.50;99.90;;;;;;5004299;28;20092;-46
2022/10/29 05:33:18;;;;;;;12.63;8.35;;;12.50;99.90;;;;;;4997858;28;20087;-47
2022/10/29 05:35:45;;;;;;;13.23;7.57;;;12.60;99.90;;;;;;4994595;28;20026;-48
2022/10/29 05:38:11;;;;;;;16.60;8.93;;;12.60;99.90;;;;;;5020031;28;20088;-50
2022/10/29 05:40:38;;;;;;;17.25;9.05;;;12.60;99.90;;;;;;4993820;28;20388;-48
2022/10/29 05:43:03;;;;;;;15.50;7.53;;;12.60;99.90;;;;;;5000718;28;20106;-47
2022/10/29 05:45:29;;;;;;;13.30;8.25;;;12.60;99.90;;;;;;4998414;28;20454;-48
2022/10/29 05:48:00;;;;;;;12.07;7.53;;;12.60;99.90;;;;;;5003695;28;20031;-48
2022/10/29 05:50:26;;;;;;;14.77;7.60;;;12.60;99.90;;;;;;5004652;28;20512;-46
2022/10/29 05:52:55;;;;;;;20.85;8.77;;;12.60;99.90;;;;;;5000150;28;20029;-46
2022/10/29 05:55:21;;;;;;;14.32;8.82;;;12.60;99.90;;;;;;4996085;28;20025;-49
2022/10/29 05:57:47;;;;;;;15.25;8.98;;;12.60;99.90;;;;;;4998014;28;20034;-46
2022/10/29 06:00:13;;;;;;;19.52;9.57;;;12.70;99.90;;;;;;5005899;28;20053;-46
2022/10/29 06:02:41;;;;;;;11.50;7.70;;;12.70;99.90;;;;;;5013140;28;20066;-46
2022/10/29 06:05:07;;;;;;;19.00;10.90;;;12.70;99.90;;;;;;5001589;28;20026;-46
2022/10/29 06:07:32;;;;;;;19.00;10.05;;;12.70;99.90;;;;;;4998016;28;20022;-47
2022/10/29 06:09:58;;;;;;;19.15;10.45;;;12.70;99.90;;;;;;4991703;28;20404;-47
2022/10/29 06:12:23;;;;;;;20.02;10.38;;;12.70;99.90;;;;;;5004342;28;20481;-52
2022/10/29 06:14:49;;;;;;;22.85;11.57;;;12.70;99.90;;;;;;4994965;28;20027;-47
2022/10/29 06:17:14;;;;;;;17.45;10.15;;;12.70;99.90;;;;;;5006076;28;20480;-47
2022/10/29 06:19:40;;;;;;;23.38;10.65;;;12.80;99.90;;;;;;4994795;28;20034;-48
2022/10/29 06:22:08;;;;;;;21.95;11.13;;;12.80;99.90;;;;;;5000154;28;20029;-46
2022/10/29 06:24:34;;;;;;;18.17;10.20;;;12.80;99.90;;;;;;4996173;28;20022;-48
2022/10/29 06:26:59;;;;;;;18.27;11.57;;;12.70;99.90;;;;;;4998713;28;20040;-47
2022/10/29 06:29:25;;;;;;;21.63;12.13;;;12.70;99.90;;;;;;4995534;28;20026;-47
2022/10/29 06:31:51;;;;;;;23.73;11.07;;;12.80;99.90;;;;;;4996675;28;20026;-47
2022/10/29 06:34:16;;;;;;;20.48;11.65;;;12.80;99.90;;;;;;4995565;28;20039;-47
2022/10/29 06:36:42;;;;;;;22.15;11.20;;;12.80;99.90;;;;;;5003700;28;20045;-46
2022/10/29 06:39:07;;;;;;;20.27;11.30;;;12.80;99.90;;;;;;5018872;28;20025;-47
2022/10/29 06:41:33;;;;;;;21.00;10.30;;;12.80;99.90;;;;;;5002717;28;20106;-46
2022/10/29 06:43:59;;;;;;;21.08;11.55;;;12.80;99.90;;;;;;5020617;28;20108;-47
2022/10/29 06:46:24;;;;;;;17.80;11.15;;;12.80;99.90;;;;;;4996511;28;20048;-46
2022/10/29 06:48:50;;;;;;;22.10;11.88;;;12.80;99.90;;;;;;5003550;28;20045;-46
2022/10/29 06:51:15;;;;;;;21.60;11.57;;;12.80;99.90;;;;;;4997544;28;20038;-46
2022/10/29 06:53:41;;;;;;;21.58;11.90;;;12.80;99.90;;;;;;5003096;28;20030;-48
2022/10/29 06:56:06;;;;;;;17.27;10.55;;;12.80;99.90;;;;;;4999249;28;20034;-49
2022/10/29 06:58:32;;;;;;;21.30;11.43;;;12.80;99.90;;;;;;5002341;28;20036;-46
2022/10/29 07:00:59;;;;;;;21.45;12.07;;;12.80;99.90;;;;;;4996188;28;20023;-48
2022/10/29 07:03:25;;;;;;;19.95;10.88;;;12.80;99.90;;;;;;5002478;28;20029;-48
2022/10/29 07:05:58;;;;;;;20.92;10.93;;;12.80;99.90;;;;;;4996548;28;20061;-51
2022/10/29 07:08:24;;;;;;;20.65;10.85;;;12.80;99.90;;;;;;4998410;28;20057;-49
2022/10/29 07:10:51;;;;;;;18.42;10.25;;;12.80;99.90;;;;;;4993688;28;20400;-48
2022/10/29 07:13:16;;;;;;;19.58;10.73;;;12.80;99.90;;;;;;4995821;28;20033;-48
2022/10/29 07:15:42;;;;;;;20.85;12.15;;;12.90;99.90;;;;;;5019068;28;20018;-47
2022/10/29 07:18:09;;;;;;;22.70;11.38;;;12.90;99.90;;;;;;4999149;28;20038;-51
2022/10/29 07:20:42;;;;;;;19.98;10.85;;;12.90;99.90;;;;;;5003886;28;20121;-46
2022/10/29 07:23:09;;;;;;;19.98;10.88;;;13.00;99.90;;;;;;4992065;28;20106;-47
2022/10/29 07:25:36;;;;;;;22.92;10.50;;;13.00;99.90;;;;;;5006067;28;20014;-49
2022/10/29 07:28:11;;;;;;;21.00;9.30;;;13.10;99.90;;;;;;4990251;28;20037;-49
2022/10/29 07:30:37;;;;;;;16.33;9.43;;;13.10;99.90;;;;;;5001731;28;20033;-48
2022/10/29 07:33:02;;;;;;;16.27;10.20;;;13.10;99.90;;;;;;5000318;28;20023;-50
2022/10/29 07:35:28;;;;;;;19.55;9.93;;;13.10;99.90;;;;;;5000312;28;20022;-49
2022/10/29 07:38:01;;;;;;;17.17;9.52;;;13.10;99.90;;;;;;5001554;28;20030;-50
2022/10/29 07:40:27;;;;;;;17.77;9.75;;;13.20;99.90;;;;;;4998155;28;20154;-47
2022/10/29 07:42:53;;;;;;;18.83;10.40;;;13.20;99.90;;;;;;5004232;28;20015;-49
2022/10/29 07:45:18;;;;;;;16.00;9.85;;;13.20;99.90;;;;;;5005988;28;20029;-51
2022/10/29 07:47:44;;;;;;;16.88;9.82;;;13.20;99.90;;;;;;5010276;28;20026;-46
2022/10/29 07:50:11;;;;;;;19.75;10.63;;;13.30;99.90;;;;;;5007157;28;20030;-46
2022/10/29 07:52:38;;;;;;;18.33;9.90;;;13.30;99.90;;;;;;5004319;28;20076;-47
2022/10/29 07:55:04;;;;;;;18.95;11.10;;;13.30;99.90;;;;;;5006734;28;20034;-49
2022/10/29 07:57:29;;;;;;;19.40;12.90;;;13.40;99.90;;;;;;5004679;28;20030;-50
2022/10/29 07:59:55;;;;;;;27.27;14.30;;;13.40;99.90;;;;;;5007777;28;20409;-47
2022/10/29 08:02:20;;;;;;;16.90;12.25;;;13.40;99.90;;;;;;5044756;23;20052;-54
2022/10/29 08:04:46;;;;;;;17.88;11.68;;;13.40;99.90;;;;;;5018398;28;20088;-53
2022/10/29 08:07:11;;;;;;;17.92;11.20;;;13.40;99.90;;;;;;5022323;28;20083;-52
2022/10/29 08:09:37;;;;;;;19.58;12.35;;;13.40;99.90;;;;;;5018998;28;20036;-53
2022/10/29 08:12:05;;;;;;;20.05;11.45;;;13.40;99.90;;;;;;5021541;28;20595;-50
2022/10/29 08:14:31;;;;;;;14.27;11.27;;;13.40;99.90;;;;;;5023861;28;20018;-50
2022/10/29 08:16:56;;;;;;;16.73;11.80;;;13.50;99.90;;;;;;5023797;28;20515;-52
2022/10/29 08:19:22;;;;;;;20.92;13.38;;;13.50;99.90;;;;;;5023736;28;20029;-49
2022/10/29 08:21:48;;;;;;;22.73;15.82;;;13.50;99.90;;;;;;5018318;28;20022;-54
2022/10/29 08:24:13;;;;;;;24.73;15.80;;;13.50;99.90;;;;;;5018228;28;20029;-50
2022/10/29 08:26:39;;;;;;;20.30;14.77;;;13.50;99.90;;;;;;5023603;28;20014;-49
2022/10/29 08:29:04;;;;;;;22.58;15.68;;;13.60;99.90;;;;;;5020902;28;20029;-52
2022/10/29 08:31:30;;;;;;;19.83;15.23;;;13.60;99.90;;;;;;5023318;28;20057;-54
2022/10/29 08:33:56;;;;;;;21.73;15.43;;;13.60;99.90;;;;;;5020266;28;20527;-52
2022/10/29 08:36:21;;;;;;;24.05;13.88;;;13.70;99.90;;;;;;5020110;28;20147;-52
2022/10/29 08:38:47;;;;;;;21.15;13.80;;;13.80;99.90;;;;;;5020800;28;20100;-53
2022/10/29 08:41:27;;;;;;;22.58;14.70;;;13.80;99.90;;;;;;5021715;28;20120;-50
2022/10/29 08:44:13;;;;;;;16.45;12.18;;;13.80;99.90;;;;;;5020951;28;20042;-51
2022/10/29 08:46:44;;;;;;;19.52;12.25;;;13.90;99.90;;;;;;5018428;28;20056;-51
2022/10/29 08:49:24;;;;;;;17.25;10.98;;;14.00;99.90;;;;;;5024540;28;20076;-51
2022/10/29 08:52:15;;;;;;;17.58;11.32;;;14.10;99.90;;;;;;5015372;28;20056;-52
2022/10/29 08:54:44;;;;;;;17.13;10.30;;;14.20;99.90;;;;;;5014787;28;20084;-51
2022/10/29 08:57:14;;;;;;;17.20;11.10;;;14.30;99.90;;;;;;5021389;28;20033;-51
2022/10/29 08:59:58;;;;;;;16.90;10.95;;;14.40;99.90;;;;;;5023103;28;20026;-50
2022/10/29 09:02:24;;;;;;;18.20;10.13;;;14.50;99.90;;;;;;5017163;28;20107;-49
2022/10/29 09:04:50;;;;;;;20.52;10.30;;;14.60;99.90;;;;;;5028043;28;20033;-50
2022/10/29 09:07:36;;;;;;;15.15;9.82;;;14.70;99.90;;;;;;5023587;28;20017;-50
2022/10/29 09:10:05;;;;;;;12.70;9.43;;;14.80;99.90;;;;;;5018415;28;20030;-52
2022/10/29 09:13:06;;;;;;;16.60;9.70;;;14.90;99.90;;;;;;5019776;28;20021;-48
2022/10/29 09:15:56;;;;;;;13.95;9.20;;;15.00;99.90;;;;;;5021728;28;20029;-53
2022/10/29 09:18:54;;;;;;;17.13;10.48;;;15.10;99.90;;;;;;5012734;28;20506;-49
2022/10/29 09:21:43;;;;;;;16.83;8.75;;;15.20;99.90;;;;;;4996143;28;20042;-49
2022/10/29 09:24:08;;;;;;;17.38;9.13;;;15.30;99.90;;;;;;5018683;28;20035;-51
2022/10/29 09:27:00;;;;;;;17.48;8.23;;;15.20;99.90;;;;;;5014734;28;20443;-49
2022/10/29 09:29:55;;;;;;;16.38;9.50;;;15.20;99.90;;;;;;5005581;28;20124;-53
2022/10/29 09:32:26;;;;;;;12.68;7.80;;;15.30;99.90;;;;;;5012172;28;20022;-50
2022/10/29 09:34:56;;;;;;;12.02;7.97;;;15.40;99.90;;;;;;5019190;28;20021;-49
2022/10/29 09:37:37;;;;;;;14.60;9.13;;;15.50;99.90;;;;;;5018293;28;20113;-50
2022/10/29 09:40:16;;;;;;;18.52;9.70;;;15.70;99.90;;;;;;5017315;28;20100;-48
2022/10/29 09:42:45;;;;;;;19.55;9.88;;;15.80;99.90;;;;;;5021604;28;20026;-52
2022/10/29 09:45:21;;;;;;;17.60;9.05;;;15.80;99.90;;;;;;5016675;28;20022;-51
2022/10/29 09:48:13;;;;;;;20.95;10.02;;;15.80;99.90;;;;;;5028019;28;20025;-50
2022/10/29 09:50:51;;;;;;;13.73;9.18;;;15.90;99.90;;;;;;5009417;28;20042;-51
2022/10/29 09:53:17;;;;;;;16.45;9.73;;;15.90;99.90;;;;;;5019461;28;20030;-52
2022/10/29 09:55:44;;;;;;;17.20;10.50;;;15.90;99.90;;;;;;5021141;28;20060;-50
2022/10/29 09:58:22;;;;;;;17.00;10.07;;;16.00;99.90;;;;;;5020288;28;20020;-48
2022/10/29 10:00:49;;;;;;;16.13;10.45;;;16.00;99.90;;;;;;5015090;28;20081;-52
2022/10/29 10:03:44;;;;;;;17.23;9.50;;;16.00;99.90;;;;;;5018797;28;20385;-50
2022/10/29 10:06:15;;;;;;;15.18;9.10;;;16.00;99.90;;;;;;5012768;28;20050;-49
2022/10/29 10:09:00;;;;;;;14.43;9.27;;;16.00;99.90;;;;;;5013068;28;20030;-52
2022/10/29 10:11:34;;;;;;;16.25;9.63;;;16.00;99.90;;;;;;5013217;28;20025;-50
2022/10/29 10:14:01;;;;;;;22.55;11.00;;;16.00;99.90;;;;;;5020373;28;20856;-50
2022/10/29 10:16:31;;;;;;;15.85;9.60;;;16.00;99.90;;;;;;5023954;28;20018;-54
2022/10/29 10:18:57;;;;;;;19.55;9.27;;;16.00;99.90;;;;;;5019044;28;20041;-51
2022/10/29 10:21:31;;;;;;;14.23;10.02;;;16.00;99.90;;;;;;5025278;28;20030;-55
2022/10/29 10:23:58;;;;;;;15.18;10.05;;;15.90;99.90;;;;;;5017447;28;20052;-49
2022/10/29 10:26:31;;;;;;;14.70;9.35;;;15.90;99.90;;;;;;5019179;28;20025;-53
2022/10/29 10:29:16;;;;;;;20.02;10.52;;;15.90;99.90;;;;;;5011146;28;20485;-51
2022/10/29 10:31:47;;;;;;;16.38;10.15;;;15.80;99.90;;;;;;5020887;28;20036;-50
2022/10/29 10:34:20;;;;;;;16.80;10.70;;;15.80;99.90;;;;;;5010289;28;20514;-51
2022/10/29 10:37:01;;;;;;;16.23;10.57;;;15.80;99.90;;;;;;5017972;28;20021;-54
2022/10/29 10:39:45;;;;;;;18.85;11.57;;;15.80;99.90;;;;;;5000421;28;20021;-53
2022/10/29 10:42:27;;;;;;;18.80;11.88;;;15.80;99.90;;;;;;5024475;28;20017;-50
2022/10/29 10:44:59;;;;;;;21.10;11.77;;;15.90;99.90;;;;;;5011533;28;20017;-49
2022/10/29 10:47:32;;;;;;;23.85;13.15;;;15.90;99.90;;;;;;5016475;28;20117;-49
2022/10/29 10:50:28;;;;;;;25.77;12.98;;;16.00;99.90;;;;;;5015827;28;20112;-56
2022/10/29 10:52:56;;;;;;;22.88;11.98;;;16.00;99.90;;;;;;5016260;28;20406;-49
2022/10/29 10:55:28;;;;;;;20.17;12.85;;;16.10;99.90;;;;;;5021859;28;20034;-49
2022/10/29 10:57:58;;;;;;;16.35;11.10;;;16.10;99.90;;;;;;5019686;28;20022;-50
2022/10/29 11:00:23;;;;;;;17.05;10.05;;;16.10;99.90;;;;;;5020753;28;20507;-49
2022/10/29 11:03:07;;;;;;;15.13;9.73;;;16.10;99.90;;;;;;5020001;28;20108;-54
2022/10/29 11:05:36;;;;;;;16.05;10.50;;;16.10;99.90;;;;;;5020520;28;20056;-51
2022/10/29 11:08:07;;;;;;;18.63;12.18;;;16.10;99.90;;;;;;5019141;28;20036;-48
2022/10/29 11:10:42;;;;;;;18.15;11.90;;;16.10;99.90;;;;;;5021397;28;20135;-52
2022/10/29 11:13:14;;;;;;;16.08;11.13;;;16.00;99.90;;;;;;5018628;28;20112;-49
2022/10/29 11:16:01;;;;;;;17.48;11.93;;;16.10;99.90;;;;;;5028702;28;20091;-50
2022/10/29 11:18:36;;;;;;;18.58;11.05;;;16.10;99.90;;;;;;5018836;28;20383;-50
2022/10/29 11:21:13;;;;;;;16.43;10.33;;;16.10;99.90;;;;;;5029648;28;20021;-51
2022/10/29 11:23:51;;;;;;;15.23;11.75;;;16.20;99.90;;;;;;5021066;28;20629;-50
2022/10/29 11:26:33;;;;;;;17.65;10.48;;;16.30;99.90;;;;;;5023231;28;20036;-51
2022/10/29 11:29:02;;;;;;;15.43;9.73;;;16.30;99.90;;;;;;5024626;28;20025;-54
2022/10/29 11:31:59;;;;;;;17.08;9.63;;;16.30;99.90;;;;;;5023343;28;20048;-51
2022/10/29 11:34:55;;;;;;;15.55;9.23;;;16.30;99.90;;;;;;5020201;28;20133;-50
2022/10/29 11:37:51;;;;;;;13.07;8.33;;;16.30;99.90;;;;;;5015942;28;20025;-50
2022/10/29 11:40:20;;;;;;;15.98;9.02;;;16.30;99.90;;;;;;5010118;28;20040;-49
2022/10/29 11:42:46;;;;;;;14.95;9.27;;;16.30;99.90;;;;;;5023301;28;20444;-52
2022/10/29 11:45:39;;;;;;;19.48;9.85;;;16.30;99.90;;;;;;5024311;28;20021;-55
2022/10/29 11:48:23;;;;;;;15.75;9.65;;;16.30;99.90;;;;;;5021309;28;20429;-51
2022/10/29 11:50:56;;;;;;;18.00;9.35;;;16.20;99.90;;;;;;5014839;28;20048;-51
2022/10/29 11:53:57;;;;;;;16.88;8.73;;;16.30;99.90;;;;;;5022677;28;20026;-54
2022/10/29 11:56:51;;;;;;;16.55;8.68;;;16.30;99.90;;;;;;5017967;28;20018;-49
2022/10/29 11:59:28;;;;;;;16.10;9.15;;;16.30;99.90;;;;;;5023197;28;20451;-49
2022/10/29 12:02:16;;;;;;;14.75;9.02;;;16.30;99.90;;;;;;5015018;28;20376;-55
2022/10/29 12:04:52;;;;;;;16.88;8.52;;;16.30;99.90;;;;;;5020667;28;20033;-49
2022/10/29 12:07:28;;;;;;;17.73;8.85;;;16.30;99.90;;;;;;5017394;28;20092;-51
2022/10/29 12:10:23;;;;;;;17.10;8.70;;;16.30;99.90;;;;;;5015397;28;20026;-50
2022/10/29 12:13:21;;;;;;;15.50;7.30;;;16.30;99.90;;;;;;5027426;28;20052;-53
2022/10/29 12:16:23;;;;;;;12.35;8.25;;;16.30;99.90;;;;;;5008517;28;20022;-50
2022/10/29 12:19:15;;;;;;;11.35;7.75;;;16.30;99.90;;;;;;5016716;28;20515;-48
2022/10/29 12:21:53;;;;;;;13.82;8.77;;;16.40;99.90;;;;;;5015121;28;20388;-49
2022/10/29 12:24:21;;;;;;;14.27;8.52;;;16.40;99.90;;;;;;5022584;28;20022;-52
2022/10/29 12:26:49;;;;;;;15.57;8.68;;;16.40;99.90;;;;;;5015756;28;20018;-50
2022/10/29 12:29:35;;;;;;;16.92;8.85;;;16.40;99.90;;;;;;5021375;28;20101;-53
2022/10/29 12:32:43;;;;;;;16.70;8.27;;;16.40;99.90;;;;;;5015246;28;20034;-51
2022/10/29 12:35:21;;;;;;;13.98;8.25;;;16.40;99.90;;;;;;4980306;28;20117;-55
2022/10/29 12:38:24;;;;;;;14.07;8.48;;;16.50;99.90;;;;;;5011346;28;20187;-49
2022/10/29 12:40:57;;;;;;;13.40;8.38;;;16.50;99.90;;;;;;5016807;28;20029;-51
2022/10/29 12:43:28;;;;;;;11.23;8.05;;;16.50;99.90;;;;;;5020082;28;20108;-49
2022/10/29 12:46:32;;;;;;;12.10;8.55;;;16.60;99.90;;;;;;5017580;28;20084;-51
2022/10/29 12:49:22;;;;;;;15.98;8.88;;;16.60;99.90;;;;;;5022262;28;20037;-52
2022/10/29 12:51:53;;;;;;;11.55;8.20;;;16.60;99.90;;;;;;5010252;28;20034;-50
2022/10/29 12:54:24;;;;;;;16.40;8.43;;;16.50;99.90;;;;;;5021362;28;20047;-48
2022/10/29 12:56:50;;;;;;;10.27;8.15;;;16.60;99.90;;;;;;5018189;28;20068;-51